Time;durP1;ratioP1;P1;durP2;ratioP2;P2;SDS_P1;SDS_P2;PMS_P1;PMS_P2;Temp;Humidity;BMP_temperature;BMP_pressure;BME280_temperature;BME280_humidity;BME280_pressure;Samples;Min_cycle;Max_cycle;Signal;HPM_P1;HPM_P2
2021/08/17 00:00:25;;;;;;;7.05;0.88;;;12.80;99.90;;;;;;5068965;28;20060;-65
2021/08/17 00:02:50;;;;;;;6.68;0.82;;;12.80;99.90;;;;;;5067891;28;20040;-66
2021/08/17 00:05:16;;;;;;;4.55;0.80;;;12.80;99.90;;;;;;5068396;28;20119;-65
2021/08/17 00:07:41;;;;;;;5.13;1.13;;;12.70;99.90;;;;;;5069355;28;20029;-66
2021/08/17 00:10:08;;;;;;;7.78;1.25;;;12.70;99.90;;;;;;5069603;28;20531;-65
2021/08/17 00:12:34;;;;;;;7.65;1.45;;;12.60;99.90;;;;;;5069327;28;20124;-67
2021/08/17 00:14:59;;;;;;;11.80;0.90;;;12.60;99.90;;;;;;5068076;28;20136;-66
2021/08/17 00:17:25;;;;;;;6.72;1.05;;;12.50;99.90;;;;;;5068804;28;20032;-67
2021/08/17 00:19:51;;;;;;;4.65;0.90;;;12.50;99.90;;;;;;5069499;28;20070;-65
2021/08/17 00:22:22;;;;;;;3.33;1.05;;;12.40;99.90;;;;;;5069365;28;20033;-66
2021/08/17 00:24:47;;;;;;;5.32;1.27;;;12.40;99.90;;;;;;5067892;28;20056;-65
2021/08/17 00:27:13;;;;;;;6.93;1.25;;;12.40;99.90;;;;;;5065170;28;20079;-65
2021/08/17 00:29:38;;;;;;;5.75;1.10;;;12.40;99.90;;;;;;5068898;28;20117;-65
2021/08/17 00:32:04;;;;;;;11.80;1.35;;;12.30;99.90;;;;;;5069693;28;20036;-65
2021/08/17 00:34:30;;;;;;;7.50;1.25;;;12.30;99.90;;;;;;5069178;28;20021;-65
2021/08/17 00:36:55;;;;;;;4.47;1.00;;;12.30;99.90;;;;;;5068749;28;20021;-65
2021/08/17 00:39:22;;;;;;;4.50;0.85;;;12.20;99.90;;;;;;5067903;28;20098;-65
2021/08/17 00:41:48;;;;;;;8.10;1.52;;;12.20;99.90;;;;;;5068883;28;20078;-65
2021/08/17 00:44:25;;;;;;;5.75;1.33;;;12.20;99.90;;;;;;5069035;28;20041;-67
2021/08/17 00:46:51;;;;;;;6.80;1.00;;;12.20;99.90;;;;;;5068652;28;20040;-65
2021/08/17 00:49:19;;;;;;;6.25;1.55;;;12.10;99.90;;;;;;5068084;28;20049;-65
2021/08/17 00:51:44;;;;;;;7.10;1.25;;;12.10;99.90;;;;;;5068503;28;20036;-66
2021/08/17 00:54:10;;;;;;;6.45;1.55;;;12.10;99.90;;;;;;5072398;28;20032;-65
2021/08/17 00:56:38;;;;;;;7.85;1.67;;;12.10;99.90;;;;;;5071770;28;20132;-66
2021/08/17 00:59:05;;;;;;;5.55;1.42;;;12.00;99.90;;;;;;5071823;28;20036;-65
2021/08/17 01:01:30;;;;;;;8.52;2.00;;;12.10;99.90;;;;;;5072718;28;20028;-66
2021/08/17 01:03:56;;;;;;;5.80;1.08;;;12.00;99.90;;;;;;5072242;28;20029;-65
2021/08/17 01:06:22;;;;;;;6.65;1.10;;;12.00;99.90;;;;;;5069786;28;20036;-65
2021/08/17 01:08:49;;;;;;;8.80;1.52;;;12.00;99.90;;;;;;5071183;28;20040;-65
2021/08/17 01:11:16;;;;;;;7.57;0.90;;;12.00;99.90;;;;;;5072596;28;20036;-66
2021/08/17 01:13:41;;;;;;;6.35;1.17;;;12.00;99.90;;;;;;5072907;28;20119;-65
2021/08/17 01:16:07;;;;;;;6.82;1.02;;;11.90;99.90;;;;;;5071815;28;20451;-65
2021/08/17 01:18:33;;;;;;;8.73;1.48;;;11.90;99.90;;;;;;5071226;28;20032;-68
2021/08/17 01:20:58;;;;;;;8.63;1.65;;;12.00;99.90;;;;;;5071839;28;20032;-65
2021/08/17 01:23:26;;;;;;;4.10;0.95;;;11.90;99.90;;;;;;5072648;28;20032;-66
2021/08/17 01:25:53;;;;;;;5.93;1.80;;;11.90;99.90;;;;;;5067330;28;20036;-65
2021/08/17 01:28:19;;;;;;;7.07;1.83;;;11.90;99.90;;;;;;5071181;28;20096;-66
2021/08/17 01:30:44;;;;;;;3.17;1.38;;;11.90;99.90;;;;;;5071087;28;20119;-65
2021/08/17 01:33:13;;;;;;;5.65;1.50;;;11.80;99.90;;;;;;5070125;28;20043;-65
2021/08/17 01:35:38;;;;;;;2.83;1.05;;;11.80;99.90;;;;;;5070033;28;20029;-67
2021/08/17 01:38:05;;;;;;;5.45;1.33;;;11.80;99.90;;;;;;5071610;28;20033;-65
2021/08/17 01:40:31;;;;;;;9.45;1.80;;;11.80;99.90;;;;;;5071765;28;20025;-65
2021/08/17 01:42:56;;;;;;;12.25;1.35;;;11.80;99.90;;;;;;5071534;28;20043;-65
2021/08/17 01:45:22;;;;;;;8.60;1.30;;;11.80;99.90;;;;;;5072394;28;20059;-66
2021/08/17 01:47:54;;;;;;;6.40;1.48;;;11.80;99.90;;;;;;5072109;28;20061;-66
2021/08/17 01:50:21;;;;;;;5.15;1.02;;;11.80;99.90;;;;;;5071446;28;20063;-65
2021/08/17 01:52:47;;;;;;;11.38;1.70;;;11.80;99.90;;;;;;5072094;28;20101;-65
2021/08/17 01:55:13;;;;;;;4.75;1.05;;;11.80;99.90;;;;;;5071133;28;20397;-65
2021/08/17 01:57:39;;;;;;;8.73;1.65;;;11.80;99.90;;;;;;5071597;28;20435;-66
2021/08/17 02:00:06;;;;;;;6.22;1.10;;;11.80;99.90;;;;;;5069908;28;20035;-65
2021/08/17 02:02:32;;;;;;;9.10;1.77;;;11.80;99.90;;;;;;5071412;28;20028;-65
2021/08/17 02:04:58;;;;;;;6.80;1.35;;;11.80;99.90;;;;;;5070403;28;20043;-67
2021/08/17 02:07:24;;;;;;;8.63;1.52;;;11.80;99.90;;;;;;5070450;28;20067;-67
2021/08/17 02:09:49;;;;;;;8.75;2.08;;;11.90;99.90;;;;;;5071258;28;20361;-65
2021/08/17 02:12:15;;;;;;;4.50;1.75;;;12.00;99.90;;;;;;5069781;28;20083;-66
2021/08/17 02:14:40;;;;;;;6.25;1.33;;;12.10;99.90;;;;;;5069790;28;20041;-66
2021/08/17 02:17:06;;;;;;;3.83;1.35;;;12.20;99.90;;;;;;5070941;28;20024;-66
2021/08/17 02:19:32;;;;;;;5.57;1.10;;;12.30;99.90;;;;;;5072386;28;20043;-67
2021/08/17 02:21:58;;;;;;;10.85;1.30;;;12.30;99.90;;;;;;5072950;28;20240;-66
2021/08/17 02:24:23;;;;;;;7.05;1.73;;;12.40;99.90;;;;;;5071424;28;20025;-65
2021/08/17 02:26:49;;;;;;;7.93;1.23;;;12.50;99.90;;;;;;5067324;28;20525;-66
2021/08/17 02:29:14;;;;;;;8.00;1.55;;;12.60;99.90;;;;;;5071074;28;20119;-65
2021/08/17 02:31:40;;;;;;;5.32;1.15;;;12.60;99.90;;;;;;5071271;28;20078;-65
2021/08/17 02:34:06;;;;;;;4.47;1.02;;;12.60;99.90;;;;;;5069737;28;20082;-65
2021/08/17 02:36:31;;;;;;;11.05;1.23;;;12.70;99.90;;;;;;5070249;28;20052;-65
2021/08/17 02:38:57;;;;;;;7.32;1.30;;;12.70;99.90;;;;;;5069829;28;20481;-65
2021/08/17 02:41:22;;;;;;;5.03;1.25;;;12.80;99.90;;;;;;5070565;28;20021;-65
2021/08/17 02:43:48;;;;;;;6.82;1.17;;;12.80;99.90;;;;;;5065540;28;20048;-65
2021/08/17 02:46:14;;;;;;;8.65;1.75;;;12.90;99.90;;;;;;5070412;28;20040;-65
2021/08/17 02:48:39;;;;;;;4.95;1.20;;;12.90;99.90;;;;;;5071006;28;20051;-67
2021/08/17 02:51:05;;;;;;;4.22;1.13;;;12.90;99.90;;;;;;5069378;28;20032;-67
2021/08/17 02:53:30;;;;;;;5.78;1.13;;;12.90;99.90;;;;;;5070763;28;20028;-65
2021/08/17 02:55:56;;;;;;;4.38;0.88;;;12.90;99.90;;;;;;5070133;28;20025;-66
2021/08/17 02:58:21;;;;;;;6.22;1.77;;;12.90;99.90;;;;;;5070465;28;20628;-66
2021/08/17 03:00:47;;;;;;;7.25;1.10;;;12.80;99.90;;;;;;5069786;28;20036;-66
2021/08/17 03:03:13;;;;;;;4.78;1.15;;;12.80;99.90;;;;;;5068569;28;20040;-65
2021/08/17 03:05:39;;;;;;;4.72;1.20;;;12.70;99.90;;;;;;5070640;28;20048;-67
2021/08/17 03:08:05;;;;;;;5.93;1.70;;;12.70;99.90;;;;;;5068689;28;20554;-66
2021/08/17 03:10:35;;;;;;;3.20;0.98;;;12.70;99.90;;;;;;5070014;28;20047;-66
2021/08/17 03:13:01;;;;;;;7.00;1.33;;;12.70;99.90;;;;;;5070546;28;20086;-65
2021/08/17 03:15:33;;;;;;;5.10;0.93;;;12.60;99.90;;;;;;5069776;28;20062;-66
2021/08/17 03:18:04;;;;;;;5.85;1.73;;;12.60;99.90;;;;;;5069224;28;20037;-65
2021/08/17 03:20:31;;;;;;;3.47;0.93;;;12.60;99.90;;;;;;5070094;28;20148;-65
2021/08/17 03:22:57;;;;;;;4.68;0.82;;;12.60;99.90;;;;;;5068924;28;20097;-65
2021/08/17 03:25:25;;;;;;;4.05;1.10;;;12.60;99.90;;;;;;5068562;28;20108;-66
2021/08/17 03:27:51;;;;;;;3.95;0.98;;;12.70;99.90;;;;;;5068010;28;20085;-65
2021/08/17 03:30:19;;;;;;;5.45;1.17;;;12.70;99.90;;;;;;5067498;28;20040;-66
2021/08/17 03:32:45;;;;;;;6.75;1.00;;;12.70;99.90;;;;;;5069835;28;20029;-65
2021/08/17 03:35:12;;;;;;;5.07;1.80;;;12.70;99.90;;;;;;5069906;28;20062;-65
2021/08/17 03:37:38;;;;;;;4.75;1.20;;;12.70;99.90;;;;;;5069604;28;20071;-65
2021/08/17 03:40:12;;;;;;;5.35;1.00;;;12.70;99.90;;;;;;5069518;28;20035;-66
2021/08/17 03:42:39;;;;;;;4.40;1.58;;;12.70;99.90;;;;;;5066521;28;20048;-66
2021/08/17 03:45:08;;;;;;;6.53;2.03;;;12.60;99.90;;;;;;5068830;28;20032;-67
2021/08/17 03:47:34;;;;;;;5.93;1.30;;;12.60;99.90;;;;;;5068199;28;20036;-66
2021/08/17 03:50:00;;;;;;;5.22;1.27;;;12.50;99.90;;;;;;5068360;28;20033;-66
2021/08/17 03:52:25;;;;;;;6.35;1.27;;;12.50;99.90;;;;;;5068836;28;20100;-67
2021/08/17 03:54:51;;;;;;;8.13;2.00;;;12.40;99.90;;;;;;5068512;28;20057;-67
2021/08/17 03:57:16;;;;;;;4.93;1.40;;;12.40;99.90;;;;;;5068228;28;20447;-67
2021/08/17 03:59:43;;;;;;;4.15;1.00;;;12.40;99.90;;;;;;5068340;28;20032;-66
2021/08/17 04:02:09;;;;;;;5.22;1.20;;;12.40;99.90;;;;;;5068230;28;20086;-67
2021/08/17 04:04:34;;;;;;;5.50;1.77;;;12.30;99.90;;;;;;5068748;28;20033;-66
2021/08/17 04:07:00;;;;;;;3.50;1.55;;;12.30;99.90;;;;;;5066324;28;20094;-66
2021/08/17 04:09:26;;;;;;;6.05;1.15;;;12.20;99.90;;;;;;5068746;28;20443;-66
2021/08/17 04:11:51;;;;;;;13.35;1.35;;;12.20;99.90;;;;;;5067175;28;20036;-66
2021/08/17 04:14:17;;;;;;;9.30;1.23;;;12.20;99.90;;;;;;5068723;28;20464;-67
2021/08/17 04:16:42;;;;;;;6.85;1.25;;;12.10;99.90;;;;;;5063578;28;20033;-67
2021/08/17 04:19:08;;;;;;;5.75;1.40;;;12.10;99.90;;;;;;5068586;28;20082;-66
2021/08/17 04:21:33;;;;;;;5.57;1.38;;;12.10;99.90;;;;;;5068132;28;20381;-66
2021/08/17 04:24:00;;;;;;;4.00;1.55;;;12.10;99.90;;;;;;5068256;28;20079;-66
2021/08/17 04:26:26;;;;;;;6.63;1.63;;;12.10;99.90;;;;;;5068822;28;20600;-67
2021/08/17 04:28:52;;;;;;;5.07;1.27;;;12.10;99.90;;;;;;5071493;28;20020;-66
2021/08/17 04:31:18;;;;;;;8.38;2.00;;;12.10;99.90;;;;;;5071066;28;20128;-66
2021/08/17 04:33:44;;;;;;;8.65;1.52;;;12.10;99.90;;;;;;5070262;28;20479;-66
2021/08/17 04:36:10;;;;;;;8.93;2.15;;;12.10;99.90;;;;;;5071034;28;20029;-66
2021/08/17 04:38:35;;;;;;;6.90;1.90;;;12.10;99.90;;;;;;5071527;28;20036;-66
2021/08/17 04:41:01;;;;;;;8.30;1.33;;;12.20;99.90;;;;;;5070429;28;20165;-66
2021/08/17 04:43:26;;;;;;;2.97;1.40;;;12.20;99.90;;;;;;5071562;28;20032;-67
2021/08/17 04:45:53;;;;;;;5.15;1.42;;;12.20;99.90;;;;;;5070489;28;20404;-66
2021/08/17 04:48:19;;;;;;;7.38;1.67;;;12.20;99.90;;;;;;5071086;28;20052;-66
2021/08/17 04:50:45;;;;;;;6.70;1.63;;;12.30;99.90;;;;;;5071534;28;20147;-66
2021/08/17 04:53:10;;;;;;;6.03;1.75;;;12.30;99.90;;;;;;5069121;28;20116;-66
2021/08/17 04:55:36;;;;;;;7.07;1.73;;;12.40;99.90;;;;;;5071555;28;20427;-66
2021/08/17 04:58:03;;;;;;;5.97;1.75;;;12.50;99.90;;;;;;5070433;28;20071;-66
2021/08/17 05:00:29;;;;;;;13.27;2.35;;;12.50;99.90;;;;;;5070273;28;20466;-66
2021/08/17 05:02:55;;;;;;;4.93;1.98;;;12.60;99.90;;;;;;5070981;28;20036;-66
2021/08/17 05:05:21;;;;;;;4.15;1.48;;;12.70;99.90;;;;;;5071469;28;20056;-66
2021/08/17 05:07:48;;;;;;;8.13;2.33;;;12.80;99.90;;;;;;5069884;28;20495;-66
2021/08/17 05:10:16;;;;;;;7.38;2.08;;;12.90;99.90;;;;;;5066117;28;20086;-66
2021/08/17 05:12:42;;;;;;;7.70;2.08;;;13.00;99.90;;;;;;5069331;28;20083;-66
2021/08/17 05:15:09;;;;;;;5.82;2.15;;;13.10;99.90;;;;;;5067139;28;20492;-67
2021/08/17 05:17:35;;;;;;;6.53;1.90;;;13.10;99.90;;;;;;5066889;28;20056;-67
2021/08/17 05:20:02;;;;;;;8.63;2.33;;;13.10;99.90;;;;;;5065120;28;20037;-67
2021/08/17 05:22:28;;;;;;;8.32;3.15;;;13.20;99.90;;;;;;5064384;28;20381;-67
2021/08/17 05:24:53;;;;;;;11.68;2.70;;;13.30;99.90;;;;;;5066326;28;20031;-66
2021/08/17 05:27:19;;;;;;;10.05;3.17;;;13.30;99.90;;;;;;5067586;28;20496;-67
2021/08/17 05:29:44;;;;;;;6.72;2.80;;;13.40;99.90;;;;;;5067800;28;20120;-67
2021/08/17 05:32:11;;;;;;;6.82;2.47;;;13.50;99.90;;;;;;5066915;28;20066;-67
2021/08/17 05:34:36;;;;;;;6.25;2.25;;;13.60;99.90;;;;;;5068401;28;20033;-67
2021/08/17 05:37:02;;;;;;;10.05;2.78;;;13.60;99.90;;;;;;5066181;28;20040;-67
2021/08/17 05:39:28;;;;;;;9.35;2.72;;;13.70;99.90;;;;;;5067906;28;20105;-67
2021/08/17 05:41:54;;;;;;;9.90;2.92;;;13.70;99.90;;;;;;5068279;28;20142;-67
2021/08/17 05:44:19;;;;;;;11.18;3.30;;;13.80;99.90;;;;;;5066157;28;20063;-67
2021/08/17 05:46:45;;;;;;;11.73;3.55;;;13.80;99.90;;;;;;5067897;28;20036;-67
2021/08/17 05:49:11;;;;;;;8.63;2.83;;;13.90;99.90;;;;;;5067167;28;20203;-66
2021/08/17 05:51:37;;;;;;;10.25;3.17;;;14.00;99.90;;;;;;5068456;28;20401;-66
2021/08/17 05:54:03;;;;;;;9.35;3.50;;;14.10;99.90;;;;;;5067618;28;20032;-67
2021/08/17 05:56:29;;;;;;;7.47;3.45;;;14.10;99.90;;;;;;5065594;28;20037;-67
2021/08/17 05:58:54;;;;;;;12.43;2.92;;;14.20;99.90;;;;;;5067250;28;20027;-67
2021/08/17 06:01:20;;;;;;;9.98;3.15;;;14.30;99.90;;;;;;5066650;28;20126;-66
2021/08/17 06:03:45;;;;;;;12.68;3.45;;;14.30;99.90;;;;;;5066205;28;20024;-67
2021/08/17 06:06:11;;;;;;;7.53;3.03;;;14.30;99.90;;;;;;5066606;28;20029;-66
2021/08/17 06:08:37;;;;;;;15.18;4.25;;;14.40;99.90;;;;;;5066362;28;20503;-67
2021/08/17 06:11:02;;;;;;;11.15;4.10;;;14.40;99.90;;;;;;5066602;28;20048;-66
2021/08/17 06:13:28;;;;;;;8.07;3.75;;;14.50;99.90;;;;;;5064098;28;20102;-66
2021/08/17 06:15:54;;;;;;;14.18;3.92;;;14.50;99.90;;;;;;5065468;28;20451;-66
2021/08/17 06:18:20;;;;;;;11.73;3.80;;;14.50;99.90;;;;;;5064539;28;20047;-66
2021/08/17 06:20:45;;;;;;;10.48;3.63;;;14.50;99.90;;;;;;5065410;28;20036;-67
2021/08/17 06:23:11;;;;;;;14.85;4.68;;;14.50;99.90;;;;;;5064337;28;20504;-66
2021/08/17 06:25:37;;;;;;;10.13;4.00;;;14.50;99.90;;;;;;5065272;28;20032;-67
2021/08/17 06:28:10;;;;;;;12.65;4.38;;;14.60;99.90;;;;;;5064231;28;20028;-67
2021/08/17 06:30:36;;;;;;;15.15;4.15;;;14.70;99.90;;;;;;5064469;28;20135;-67
2021/08/17 06:33:01;;;;;;;10.88;4.47;;;14.80;99.90;;;;;;5064722;28;20031;-67
2021/08/17 06:35:27;;;;;;;16.95;4.32;;;14.80;99.90;;;;;;5065072;28;20040;-67
2021/08/17 06:37:53;;;;;;;13.48;4.47;;;14.90;99.90;;;;;;5064882;28;20028;-67
2021/08/17 06:40:19;;;;;;;13.38;4.70;;;15.00;99.90;;;;;;5062791;28;20066;-68
2021/08/17 06:42:45;;;;;;;13.27;4.78;;;15.10;99.90;;;;;;5064389;28;20431;-67
2021/08/17 06:45:11;;;;;;;20.73;5.95;;;15.20;99.90;;;;;;5064192;28;20025;-67
2021/08/17 06:47:48;;;;;;;15.57;4.25;;;15.30;99.90;;;;;;5064353;28;20064;-67
2021/08/17 06:50:14;;;;;;;15.07;5.05;;;15.30;99.90;;;;;;5065177;28;20063;-66
2021/08/17 06:52:40;;;;;;;17.15;5.35;;;15.30;99.90;;;;;;5065270;28;20033;-67
2021/08/17 06:55:07;;;;;;;17.50;5.20;;;15.50;99.90;;;;;;5066722;28;20062;-66
2021/08/17 06:57:32;;;;;;;17.63;5.20;;;15.50;99.90;;;;;;5066568;28;20096;-67
2021/08/17 06:59:58;;;;;;;16.85;4.50;;;15.60;99.90;;;;;;5067064;28;20120;-66
2021/08/17 07:02:24;;;;;;;9.30;3.70;;;15.80;99.90;;;;;;5066621;28;20043;-67
2021/08/17 07:04:49;;;;;;;14.27;4.32;;;15.90;99.90;;;;;;5066334;28;20522;-67
2021/08/17 07:07:15;;;;;;;14.82;5.20;;;16.00;99.90;;;;;;5063385;28;20123;-67
2021/08/17 07:09:40;;;;;;;17.38;4.50;;;16.10;99.90;;;;;;5064203;28;20029;-67
2021/08/17 07:12:06;;;;;;;12.30;4.18;;;16.20;99.90;;;;;;5066532;28;20040;-67
2021/08/17 07:14:31;;;;;;;20.35;4.85;;;16.20;99.90;;;;;;5064551;28;20070;-67
2021/08/17 07:16:57;;;;;;;15.48;4.88;;;16.30;99.90;;;;;;5065938;28;20071;-67
2021/08/17 07:19:23;;;;;;;12.07;4.22;;;16.30;99.90;;;;;;5064283;28;20044;-67
2021/08/17 07:21:48;;;;;;;12.40;4.05;;;16.30;99.90;;;;;;5064253;28;20036;-66
2021/08/17 07:24:14;;;;;;;14.70;4.60;;;16.30;99.90;;;;;;5063916;28;20107;-67
2021/08/17 07:26:40;;;;;;;13.75;5.00;;;16.30;99.90;;;;;;5065989;28;20119;-67
2021/08/17 07:29:06;;;;;;;15.57;3.90;;;16.30;99.90;;;;;;5064387;28;20025;-67
2021/08/17 07:31:34;;;;;;;14.63;4.20;;;16.20;99.90;;;;;;5065091;28;20445;-67
2021/08/17 07:34:02;;;;;;;11.48;3.60;;;16.30;99.90;;;;;;5065073;28;20036;-67
2021/08/17 07:36:28;;;;;;;16.77;4.30;;;16.40;99.90;;;;;;5065661;28;20082;-67
2021/08/17 07:38:53;;;;;;;17.58;3.60;;;16.50;99.90;;;;;;5065632;28;20404;-67
2021/08/17 07:41:19;;;;;;;10.95;4.53;;;16.60;99.90;;;;;;5066350;28;20049;-67
2021/08/17 07:43:44;;;;;;;15.95;3.97;;;16.70;99.90;;;;;;5065758;28;20036;-71
2021/08/17 07:46:10;;;;;;;13.60;4.40;;;16.70;99.90;;;;;;5065795;28;20078;-67
2021/08/17 07:48:35;;;;;;;12.60;3.90;;;16.80;99.90;;;;;;5065484;28;20035;-67
2021/08/17 07:51:01;;;;;;;12.30;4.45;;;16.70;99.90;;;;;;5065616;28;20036;-67
2021/08/17 07:53:27;;;;;;;13.07;4.40;;;16.70;99.90;;;;;;5065441;28;20036;-67
2021/08/17 07:55:52;;;;;;;15.35;4.65;;;16.70;99.90;;;;;;5064840;28;20400;-67
2021/08/17 07:58:18;;;;;;;11.43;3.65;;;16.70;99.90;;;;;;5065370;28;20040;-67
2021/08/17 08:00:44;;;;;;;11.02;3.85;;;16.60;99.90;;;;;;5066774;28;20025;-67
2021/08/17 08:03:09;;;;;;;14.77;3.90;;;16.60;99.90;;;;;;5069484;28;20036;-67
2021/08/17 08:05:35;;;;;;;10.85;3.85;;;16.70;99.90;;;;;;5067796;28;20032;-67
2021/08/17 08:08:00;;;;;;;10.48;3.33;;;16.70;99.90;;;;;;5069553;28;20043;-67
2021/08/17 08:10:26;;;;;;;8.43;2.90;;;16.70;99.90;;;;;;5068555;28;20089;-67
2021/08/17 08:12:52;;;;;;;13.15;4.13;;;16.70;99.90;;;;;;5068807;28;20428;-68
2021/08/17 08:15:17;;;;;;;12.07;3.65;;;16.70;99.90;;;;;;5068883;28;20567;-67
2021/08/17 08:17:43;;;;;;;9.20;3.30;;;16.80;99.90;;;;;;5068520;28;20420;-67
2021/08/17 08:20:09;;;;;;;9.30;3.13;;;16.90;99.90;;;;;;5067218;28;20285;-67
2021/08/17 08:22:35;;;;;;;10.60;3.25;;;17.00;99.90;;;;;;5070789;28;20027;-67
2021/08/17 08:25:02;;;;;;;5.82;2.35;;;17.10;99.90;;;;;;5068584;28;20045;-67
2021/08/17 08:27:28;;;;;;;7.35;3.13;;;17.30;99.90;;;;;;5067230;28;20485;-67
2021/08/17 08:29:53;;;;;;;8.35;2.58;;;17.40;99.90;;;;;;5068549;28;20036;-71
2021/08/17 08:32:19;;;;;;;7.63;3.53;;;17.60;99.90;;;;;;5067451;28;21690;-67
2021/08/17 08:34:44;;;;;;;17.10;3.00;;;17.60;99.90;;;;;;5068649;28;20036;-67
2021/08/17 08:37:10;;;;;;;8.00;2.38;;;17.60;99.90;;;;;;5067360;28;20089;-67
2021/08/17 08:39:36;;;;;;;10.63;2.53;;;17.40;99.90;;;;;;5067663;28;20377;-67
2021/08/17 08:42:03;;;;;;;6.82;2.55;;;17.30;99.90;;;;;;5068428;28;20059;-67
2021/08/17 08:44:28;;;;;;;10.10;2.33;;;17.20;99.90;;;;;;5067421;28;20086;-67
2021/08/17 08:46:54;;;;;;;7.78;2.85;;;17.10;99.90;;;;;;5068740;28;20466;-67
2021/08/17 08:49:20;;;;;;;8.95;2.55;;;17.00;99.90;;;;;;5068027;28;20047;-67
2021/08/17 08:51:46;;;;;;;8.65;2.22;;;17.20;99.90;;;;;;5067390;28;20064;-67
2021/08/17 08:54:11;;;;;;;6.28;2.30;;;17.30;99.90;;;;;;5066449;28;20051;-67
2021/08/17 08:56:37;;;;;;;6.60;1.90;;;17.50;99.90;;;;;;5067555;28;20029;-67
2021/08/17 08:59:03;;;;;;;12.88;2.28;;;17.60;99.90;;;;;;5066974;28;20028;-67
2021/08/17 09:01:28;;;;;;;6.55;2.08;;;17.70;99.90;;;;;;5067249;28;20099;-67
2021/08/17 09:03:58;;;;;;;9.07;2.08;;;17.70;99.90;;;;;;5066563;28;20052;-67
2021/08/17 09:06:31;;;;;;;7.57;1.90;;;17.60;99.90;;;;;;5067745;28;20052;-67
2021/08/17 09:09:11;;;;;;;4.45;1.67;;;17.50;99.90;;;;;;5067216;28;20118;-67
2021/08/17 09:11:40;;;;;;;5.90;1.58;;;17.40;99.90;;;;;;5067790;28;20397;-67
2021/08/17 09:14:27;;;;;;;5.78;1.80;;;17.30;99.90;;;;;;5066987;28;20029;-67
2021/08/17 09:17:00;;;;;;;5.75;1.70;;;17.30;99.90;;;;;;5064822;28;20500;-68
2021/08/17 09:19:27;;;;;;;5.82;1.50;;;17.30;99.90;;;;;;5067816;28;20028;-67
2021/08/17 09:21:53;;;;;;;6.72;1.85;;;17.30;99.90;;;;;;5067829;28;20087;-69
2021/08/17 09:24:27;;;;;;;7.45;1.90;;;17.20;99.90;;;;;;5068111;28;20075;-67
2021/08/17 09:26:56;;;;;;;6.65;1.90;;;17.20;99.90;;;;;;5066481;28;20044;-68
2021/08/17 09:29:27;;;;;;;4.57;1.88;;;17.10;99.90;;;;;;5067804;28;20029;-67
2021/08/17 09:31:55;;;;;;;8.18;2.22;;;17.00;99.90;;;;;;5067657;28;20725;-67
2021/08/17 09:34:23;;;;;;;7.05;1.40;;;17.00;99.90;;;;;;5066237;28;20040;-67
2021/08/17 09:36:49;;;;;;;9.73;2.13;;;16.90;99.90;;;;;;5067880;28;20119;-67
2021/08/17 09:39:37;;;;;;;7.25;1.65;;;17.00;99.90;;;;;;5067215;28;20136;-67
2021/08/17 09:42:21;;;;;;;5.82;1.88;;;16.90;99.90;;;;;;5067453;28;20064;-66
2021/08/17 09:45:11;;;;;;;3.85;1.20;;;16.80;99.90;;;;;;5065689;28;20040;-67
2021/08/17 09:47:40;;;;;;;3.58;1.48;;;16.90;99.90;;;;;;5066558;28;20044;-67
2021/08/17 09:50:21;;;;;;;5.68;1.63;;;16.90;99.90;;;;;;5067243;28;20252;-68
2021/08/17 09:52:49;;;;;;;4.82;1.42;;;17.00;99.90;;;;;;5050356;28;20044;-68
2021/08/17 09:55:17;;;;;;;3.05;1.27;;;17.00;99.90;;;;;;5067048;28;20043;-68
2021/08/17 09:57:43;;;;;;;7.82;1.63;;;17.00;99.90;;;;;;5066644;28;20033;-68
2021/08/17 10:00:14;;;;;;;7.75;1.85;;;17.00;99.90;;;;;;5068195;28;20560;-68
2021/08/17 10:02:44;;;;;;;4.63;1.98;;;17.00;99.90;;;;;;5069446;28;20043;-68
2021/08/17 10:05:11;;;;;;;7.13;1.47;;;17.10;99.90;;;;;;5070659;28;20044;-68
2021/08/17 10:07:39;;;;;;;8.80;1.88;;;17.10;99.90;;;;;;5066006;28;20025;-68
2021/08/17 10:10:06;;;;;;;5.68;1.75;;;17.00;99.90;;;;;;5078610;28;20090;-67
2021/08/17 10:12:32;;;;;;;4.22;1.80;;;17.00;99.90;;;;;;5084292;28;20066;-68
2021/08/17 10:14:58;;;;;;;5.47;1.73;;;16.90;99.90;;;;;;5064702;28;20060;-68
2021/08/17 10:17:24;;;;;;;5.50;1.50;;;16.80;99.90;;;;;;5063699;28;20028;-68
2021/08/17 10:19:50;;;;;;;5.45;1.40;;;16.80;99.90;;;;;;5064021;28;20595;-67
2021/08/17 10:22:18;;;;;;;4.00;1.35;;;16.80;99.90;;;;;;5063782;28;20028;-66
2021/08/17 10:24:48;;;;;;;4.65;1.50;;;16.80;99.90;;;;;;5061574;28;20392;-68
2021/08/17 10:27:13;;;;;;;5.82;2.03;;;16.80;99.90;;;;;;5063468;28;20045;-66
2021/08/17 10:29:58;;;;;;;4.50;1.73;;;16.80;99.90;;;;;;5061783;28;20612;-66
2021/08/17 10:32:42;;;;;;;9.82;1.85;;;16.90;99.90;;;;;;5063953;28;20037;-68
2021/08/17 10:35:32;;;;;;;5.85;1.40;;;16.90;99.90;;;;;;5065135;28;20053;-68
2021/08/17 10:38:06;;;;;;;6.10;2.00;;;16.80;99.90;;;;;;5063300;28;20039;-67
2021/08/17 10:40:51;;;;;;;5.05;1.55;;;16.70;99.90;;;;;;5064309;28;20090;-67
2021/08/17 10:43:21;;;;;;;4.60;1.75;;;16.50;99.90;;;;;;5051196;28;20032;-68
2021/08/17 10:45:59;;;;;;;7.00;1.60;;;16.30;99.90;;;;;;5082266;27;20356;-68
2021/08/17 10:48:43;;;;;;;8.77;1.92;;;16.20;99.90;;;;;;5077595;28;20075;-67
2021/08/17 10:51:11;;;;;;;7.22;1.90;;;16.00;99.90;;;;;;5077066;28;20384;-69
2021/08/17 10:53:37;;;;;;;4.57;1.77;;;16.00;99.90;;;;;;5077763;28;20043;-70
2021/08/17 10:56:18;;;;;;;8.40;1.73;;;16.00;99.90;;;;;;5079078;28;20151;-69
2021/08/17 10:58:46;;;;;;;3.05;1.42;;;16.00;99.90;;;;;;5080323;28;20032;-69
2021/08/17 11:01:12;;;;;;;2.83;1.25;;;16.00;99.90;;;;;;5080786;28;20043;-66
2021/08/17 11:03:39;;;;;;;4.72;1.60;;;15.90;99.90;;;;;;5081116;28;20025;-70
2021/08/17 11:06:05;;;;;;;5.30;1.40;;;15.90;99.90;;;;;;5080416;28;20032;-68
2021/08/17 11:08:30;;;;;;;2.70;1.00;;;15.80;99.90;;;;;;5080303;28;20533;-69
2021/08/17 11:10:56;;;;;;;4.32;1.77;;;15.70;99.90;;;;;;5080923;28;20037;-69
2021/08/17 11:13:25;;;;;;;5.03;1.50;;;15.60;99.90;;;;;;5080986;28;20393;-67
2021/08/17 11:16:12;;;;;;;2.47;1.27;;;15.50;99.90;;;;;;5080956;28;20788;-68
2021/08/17 11:18:55;;;;;;;6.90;2.15;;;15.40;99.90;;;;;;5080715;28;20036;-67
2021/08/17 11:21:41;;;;;;;5.70;1.70;;;15.40;99.90;;;;;;5079816;28;20029;-69
2021/08/17 11:24:14;;;;;;;4.07;1.95;;;15.30;99.90;;;;;;5081050;28;20400;-67
2021/08/17 11:26:52;;;;;;;8.25;2.00;;;15.30;99.90;;;;;;5081387;28;20100;-68
2021/08/17 11:29:51;;;;;;;3.83;1.95;;;15.30;99.90;;;;;;5080378;28;20078;-69
2021/08/17 11:32:48;;;;;;;4.80;2.00;;;15.30;99.90;;;;;;5058008;28;20054;-69
2021/08/17 11:35:22;;;;;;;4.95;1.90;;;15.40;99.90;;;;;;5081311;28;20115;-67
2021/08/17 11:37:50;;;;;;;3.35;1.65;;;15.30;99.90;;;;;;5078467;28;20112;-68
2021/08/17 11:40:18;;;;;;;6.07;1.85;;;15.30;99.90;;;;;;5081386;28;20111;-69
2021/08/17 11:42:46;;;;;;;4.95;1.98;;;15.30;99.90;;;;;;5080768;28;20040;-67
2021/08/17 11:45:21;;;;;;;5.55;1.58;;;15.30;99.90;;;;;;5079790;28;20515;-68
2021/08/17 11:47:48;;;;;;;10.80;3.05;;;15.30;99.90;;;;;;5079945;28;20040;-67
2021/08/17 11:50:16;;;;;;;4.28;2.10;;;15.30;99.90;;;;;;5078965;28;20031;-69
2021/08/17 11:52:44;;;;;;;7.88;2.30;;;15.40;99.90;;;;;;5080146;28;20086;-68
2021/08/17 11:55:11;;;;;;;5.65;2.03;;;15.40;99.90;;;;;;5079288;28;20074;-69
2021/08/17 11:57:43;;;;;;;5.82;2.08;;;15.40;99.90;;;;;;5065852;28;20044;-69
2021/08/17 12:00:37;;;;;;;6.90;1.80;;;15.50;99.90;;;;;;5067065;28;20577;-67
2021/08/17 12:03:08;;;;;;;4.68;2.30;;;15.50;99.90;;;;;;5066274;28;20050;-66
2021/08/17 12:05:37;;;;;;;4.35;1.83;;;15.40;99.90;;;;;;5066248;28;20036;-68
2021/08/17 12:08:05;;;;;;;4.70;1.85;;;15.40;99.90;;;;;;5066807;28;20028;-68
2021/08/17 12:10:33;;;;;;;6.97;1.95;;;15.40;99.90;;;;;;5064867;28;20191;-69
2021/08/17 12:13:12;;;;;;;7.00;2.10;;;15.50;99.90;;;;;;5066859;28;20059;-69
2021/08/17 12:15:57;;;;;;;5.53;2.13;;;15.50;99.90;;;;;;5066525;28;20033;-69
2021/08/17 12:18:31;;;;;;;6.63;2.50;;;15.60;99.90;;;;;;5065345;28;20028;-69
2021/08/17 12:21:09;;;;;;;3.67;1.90;;;15.70;99.90;;;;;;5063942;28;20060;-69
2021/08/17 12:23:35;;;;;;;7.70;2.15;;;15.80;99.90;;;;;;5064945;28;20036;-69
2021/08/17 12:26:15;;;;;;;3.70;2.08;;;15.80;99.90;;;;;;5065004;28;20043;-69
2021/08/17 12:28:43;;;;;;;7.25;2.15;;;16.00;99.90;;;;;;5066341;28;20044;-69
2021/08/17 12:31:18;;;;;;;5.22;2.28;;;16.00;99.90;;;;;;5066579;28;20028;-69
2021/08/17 12:33:54;;;;;;;3.75;2.28;;;16.00;99.90;;;;;;5066104;28;20112;-69
2021/08/17 12:36:22;;;;;;;3.30;2.05;;;16.00;99.90;;;;;;5064511;28;20111;-74
2021/08/17 12:38:49;;;;;;;5.32;2.22;;;16.00;99.90;;;;;;5063451;28;20043;-67
2021/08/17 12:41:32;;;;;;;3.63;2.03;;;15.90;99.90;;;;;;5065931;28;20456;-69
2021/08/17 12:43:57;;;;;;;4.85;2.00;;;15.80;99.90;;;;;;5065171;28;20048;-69
2021/08/17 12:46:23;;;;;;;3.70;2.08;;;15.80;99.90;;;;;;5066095;28;20037;-69
2021/08/17 12:48:48;;;;;;;5.90;2.70;;;15.70;99.90;;;;;;5065733;28;20056;-67